createdAt,value
2019-03-13T00:07:20.193Z,7.60
2019-03-13T00:12:15.678Z,7.60
2019-03-13T00:17:10.136Z,7.50
2019-03-13T00:22:05.535Z,7.60
2019-03-13T00:27:01.692Z,7.60
2019-03-13T00:31:59.577Z,7.70
2019-03-13T00:36:55.833Z,7.70
2019-03-13T00:41:53.374Z,7.70
2019-03-13T00:51:43.539Z,7.80
2019-03-13T00:56:38.008Z,7.80
2019-03-13T01:01:46.600Z,7.70
2019-03-13T01:06:44.314Z,7.80
2019-03-13T01:11:39.016Z,7.80
2019-03-13T01:16:33.518Z,7.80
2019-03-13T01:21:28.056Z,7.80
2019-03-13T01:26:23.350Z,7.90
2019-03-13T01:31:23.121Z,7.90
2019-03-13T01:36:17.736Z,7.90
2019-03-13T01:41:12.263Z,8.00
2019-03-13T01:46:06.371Z,8.00
2019-03-13T01:51:01.078Z,7.90
2019-03-13T01:55:55.531Z,7.90
2019-03-13T02:00:50.593Z,7.90
2019-03-13T02:05:45.021Z,7.90
2019-03-13T02:10:41.002Z,7.90
2019-03-13T02:15:35.742Z,7.80
2019-03-13T02:20:30.831Z,7.90
2019-03-13T02:25:25.575Z,7.80
2019-03-13T02:30:24.138Z,7.90
2019-03-13T02:35:18.543Z,8.00
2019-03-13T02:40:18.597Z,8.40
2019-03-13T02:45:14.332Z,8.60
2019-03-13T02:50:11.654Z,8.60
2019-03-13T02:55:07.970Z,8.50
2019-03-13T03:00:03.702Z,8.40
2019-03-13T03:04:58.367Z,8.40
2019-03-13T03:09:53.385Z,8.30
2019-03-13T03:15:01.687Z,8.30
2019-03-13T03:19:56.071Z,8.40
2019-03-13T03:24:51.343Z,8.40
2019-03-13T03:29:46.608Z,8.40
2019-03-13T03:34:41.159Z,8.40
2019-03-13T03:39:35.513Z,8.50
2019-03-13T03:49:27.951Z,8.60
2019-03-13T03:54:23.017Z,8.60
2019-03-13T03:59:17.656Z,8.60
2019-03-13T04:04:13.095Z,8.60
2019-03-13T04:09:09.207Z,8.60
2019-03-13T04:14:05.024Z,8.70
2019-03-13T04:18:59.722Z,8.80
2019-03-13T04:23:54.205Z,8.90
2019-03-13T04:28:49.202Z,8.80
2019-03-13T04:33:43.766Z,8.70
2019-03-13T04:38:41.668Z,8.70
2019-03-13T04:43:37.754Z,8.50
2019-03-13T04:48:32.764Z,8.40
2019-03-13T04:53:26.880Z,8.30
2019-03-13T04:58:22.131Z,8.20
2019-03-13T05:03:16.223Z,8.10
2019-03-13T05:13:07.384Z,8.00
2019-03-13T05:18:01.567Z,7.70
2019-03-13T05:23:00.969Z,7.40
2019-03-13T05:27:55.692Z,7.20
2019-03-13T05:32:54.216Z,7.00
2019-03-13T05:37:48.619Z,6.90
2019-03-13T05:42:45.219Z,6.80
2019-03-13T05:47:39.851Z,6.70
2019-03-13T06:02:23.638Z,6.40
2019-03-13T06:07:18.264Z,6.80
2019-03-13T06:12:13.231Z,7.90
2019-03-13T06:17:09.769Z,7.90
2019-03-13T06:22:06.039Z,7.60
2019-03-13T06:27:13.938Z,7.90
2019-03-13T06:32:09.230Z,8.10
2019-03-13T06:37:05.191Z,8.70
2019-03-13T06:41:59.726Z,10.30
2019-03-13T06:46:56.965Z,11.00
2019-03-13T06:51:52.155Z,10.50
2019-03-13T06:56:46.513Z,13.20
2019-03-13T07:01:43.142Z,16.50
2019-03-13T07:06:41.588Z,19.20
2019-03-13T07:11:48.309Z,21.10
2019-03-13T07:16:44.552Z,22.30
2019-03-13T07:22:00.284Z,23.10
2019-03-13T07:27:02.742Z,24.00
2019-03-13T07:32:16.788Z,25.20
2019-03-13T07:42:40.144Z,27.10
2019-03-13T07:47:54.349Z,27.40
2019-03-13T07:52:56.702Z,28.10
2019-03-13T07:57:52.725Z,28.20
2019-03-13T08:02:49.269Z,28.30
2019-03-13T08:08:04.864Z,28.90
2019-03-13T08:13:07.960Z,29.50
2019-03-13T08:18:11.335Z,30.60
2019-03-13T08:23:21.838Z,30.40
2019-03-13T08:28:18.011Z,30.80
2019-03-13T08:33:33.899Z,31.90
2019-03-13T08:38:47.156Z,31.30
2019-03-13T08:43:49.147Z,30.90
2019-03-13T08:59:05.631Z,24.60
2019-03-13T09:04:01.781Z,22.80
2019-03-13T09:08:59.038Z,21.40
2019-03-13T09:14:00.840Z,21.10
2019-03-13T09:24:00.881Z,24.30
2019-03-13T09:29:01.924Z,25.00
2019-03-13T09:34:12.000Z,27.70
2019-03-13T09:39:30.809Z,25.80
2019-03-13T09:44:26.821Z,21.60
2019-03-13T09:49:23.637Z,18.70
2019-03-13T09:59:42.727Z,16.30
2019-03-13T10:04:33.623Z,15.00
2019-03-13T10:09:36.551Z,14.00
2019-03-13T10:14:35.662Z,14.20
2019-03-13T10:19:52.763Z,14.10
2019-03-13T10:24:49.714Z,14.10
2019-03-13T10:29:46.165Z,15.30
2019-03-13T10:34:45.154Z,17.70
2019-03-13T10:39:53.879Z,18.00
2019-03-13T10:45:06.785Z,16.60
2019-03-13T10:50:08.523Z,16.30
2019-03-13T10:55:18.465Z,17.70
2019-03-13T11:00:21.674Z,18.90
2019-03-13T11:05:29.500Z,18.40
2019-03-13T11:10:25.481Z,15.80
2019-03-13T11:15:21.643Z,15.10
2019-03-13T11:20:27.075Z,15.00
2019-03-13T11:25:31.247Z,15.00
2019-03-13T11:30:42.078Z,14.70
2019-03-13T11:35:52.346Z,13.90
2019-03-13T11:40:54.024Z,13.50
2019-03-13T11:46:08.461Z,13.30
2019-03-13T11:51:05.974Z,13.20
2019-03-13T11:56:07.347Z,13.50
2019-03-13T12:01:03.587Z,15.20
2019-03-13T12:06:05.795Z,15.60
2019-03-13T12:11:04.268Z,15.50
2019-03-13T12:16:00.525Z,15.50
2019-03-13T12:21:13.650Z,15.00
2019-03-13T12:26:09.890Z,14.50
2019-03-13T12:31:10.039Z,13.80
2019-03-13T12:36:12.412Z,12.80
2019-03-13T12:41:09.926Z,12.90
2019-03-13T12:46:10.291Z,13.30
2019-03-13T12:51:14.164Z,13.30
2019-03-13T12:56:13.379Z,12.80
2019-03-13T13:01:10.805Z,12.60
2019-03-13T13:06:24.917Z,12.90
2019-03-13T13:11:25.144Z,12.50
2019-03-13T13:16:27.634Z,12.40
2019-03-13T13:21:22.169Z,12.40
2019-03-13T13:26:16.936Z,12.20
2019-03-13T13:31:11.920Z,12.20
2019-03-13T13:36:08.122Z,11.90
2019-03-13T13:41:04.029Z,12.10
2019-03-13T13:46:05.773Z,12.50
2019-03-13T13:51:00.048Z,12.70
2019-03-13T13:55:55.746Z,12.70
2019-03-13T14:00:50.087Z,13.10
2019-03-13T14:05:47.071Z,13.20
2019-03-13T14:10:41.553Z,13.50
2019-03-13T14:15:37.028Z,13.60
2019-03-13T14:20:31.447Z,13.40
2019-03-13T14:25:26.370Z,13.20
2019-03-13T14:30:24.557Z,13.00
2019-03-13T14:35:19.841Z,12.80
2019-03-13T14:40:19.895Z,12.70
2019-03-13T14:45:22.502Z,12.80
2019-03-13T14:50:19.983Z,13.10
2019-03-13T14:55:17.444Z,13.30
2019-03-13T15:00:17.390Z,13.00
2019-03-13T15:05:12.400Z,12.60
2019-03-13T15:10:09.690Z,12.30
2019-03-13T15:20:01.988Z,12.00
2019-03-13T15:25:15.719Z,11.80
2019-03-13T15:30:15.717Z,11.60
2019-03-13T15:35:13.668Z,11.70
2019-03-13T15:40:06.799Z,11.70
2019-03-13T15:45:01.728Z,11.60
2019-03-13T15:49:56.594Z,11.40
2019-03-13T15:59:46.780Z,11.30
2019-03-13T16:04:41.679Z,11.20
2019-03-13T16:09:36.539Z,11.10
2019-03-13T16:14:32.078Z,11.10
2019-03-13T16:19:27.642Z,11.00
2019-03-13T16:24:23.481Z,10.80
2019-03-13T16:29:24.170Z,10.70
2019-03-13T16:34:21.139Z,10.60
2019-03-13T16:39:32.369Z,10.50
2019-03-13T16:44:24.427Z,10.50
2019-03-13T16:49:21.723Z,10.60
2019-03-13T16:54:19.780Z,10.50
2019-03-13T16:59:20.131Z,10.40
2019-03-13T17:04:12.757Z,10.30
2019-03-13T17:09:08.611Z,10.20
2019-03-13T17:14:04.363Z,10.20
2019-03-13T17:19:00.919Z,10.10
2019-03-13T17:23:55.062Z,10.10
2019-03-13T17:28:50.464Z,10.10
2019-03-13T17:33:49.437Z,10.00
2019-03-13T17:38:52.143Z,10.00
2019-03-13T17:43:49.931Z,10.00
2019-03-13T17:48:46.996Z,9.90
2019-03-13T17:53:44.397Z,9.90
2019-03-13T17:58:39.552Z,9.80
2019-03-13T18:03:37.640Z,9.70
2019-03-13T18:08:34.994Z,9.70
2019-03-13T18:13:32.373Z,9.70
2019-03-13T18:18:27.181Z,9.70
2019-03-13T18:23:21.416Z,9.60
2019-03-13T18:28:18.434Z,9.50
2019-03-13T18:33:15.625Z,9.60
2019-03-13T18:38:12.020Z,9.50
2019-03-13T18:43:07.923Z,9.50
2019-03-13T18:48:06.817Z,9.60
2019-03-13T18:53:05.236Z,9.50
2019-03-13T18:57:59.626Z,9.50
2019-03-13T19:02:56.906Z,9.50
2019-03-13T19:07:51.503Z,9.50
2019-03-13T19:12:49.545Z,9.40
2019-03-13T19:17:43.791Z,9.40
2019-03-13T19:22:39.901Z,9.30
2019-03-13T19:27:36.994Z,9.30
2019-03-13T19:32:37.285Z,9.30
2019-03-13T19:37:33.491Z,9.20
2019-03-13T19:42:29.833Z,9.20
2019-03-13T19:47:25.689Z,9.10
2019-03-13T19:52:24.679Z,9.00
2019-03-13T19:57:20.459Z,8.90
2019-03-13T20:02:20.872Z,8.90
2019-03-13T20:07:15.146Z,9.00
2019-03-13T20:12:14.385Z,9.00
2019-03-13T20:17:16.588Z,9.00
2019-03-13T20:22:13.339Z,9.00
2019-03-13T20:27:13.695Z,9.00
2019-03-13T20:32:09.586Z,9.10
2019-03-13T20:37:06.852Z,9.00
2019-03-13T20:42:03.627Z,8.90
2019-03-13T20:46:57.897Z,8.80
2019-03-13T20:52:04.725Z,8.70
2019-03-13T20:57:04.263Z,8.70
2019-03-13T21:02:00.245Z,8.70
2019-03-13T21:06:56.444Z,8.70
2019-03-13T21:11:53.985Z,8.80
2019-03-13T21:16:49.097Z,8.80
2019-03-13T21:21:43.163Z,8.90
2019-03-13T21:26:43.670Z,8.90
2019-03-13T21:31:37.636Z,8.90
2019-03-13T21:36:33.109Z,8.90
2019-03-13T21:41:27.352Z,8.80
2019-03-13T21:46:22.880Z,8.70
2019-03-13T21:51:18.683Z,8.70
2019-03-13T21:56:13.652Z,8.70
2019-03-13T22:01:19.792Z,8.60
2019-03-13T22:06:11.129Z,8.50
2019-03-13T22:11:08.989Z,8.40
2019-03-13T22:16:06.478Z,8.30
2019-03-13T22:21:01.666Z,8.50
2019-03-13T22:26:05.911Z,8.60
2019-03-13T22:30:58.959Z,8.60
2019-03-13T22:35:53.117Z,8.60
2019-03-13T22:40:49.459Z,8.60
2019-03-13T22:45:43.540Z,8.60
2019-03-13T22:50:41.610Z,8.50
2019-03-13T22:55:35.935Z,8.40
2019-03-13T23:00:52.674Z,8.30
2019-03-13T23:05:49.818Z,8.30
2019-03-13T23:10:46.085Z,8.30
2019-03-13T23:15:39.831Z,8.40
2019-03-13T23:20:35.542Z,8.40
2019-03-13T23:25:29.714Z,8.40
2019-03-13T23:30:23.996Z,8.50
2019-03-13T23:35:18.309Z,8.40
2019-03-13T23:40:12.858Z,8.30
2019-03-13T23:45:09.699Z,8.30
2019-03-13T23:50:03.982Z,8.20
2019-03-13T23:54:59.596Z,8.30
2019-03-13T23:59:54.981Z,8.40
